createdAt,value
2023-03-17T11:37:26.296Z,62631.94
2023-03-17T11:40:32.250Z,62633.72
2023-03-17T11:43:20.555Z,62656.41
2023-03-17T11:46:28.438Z,62657.50
2023-03-17T11:49:20.540Z,62647.84
2023-03-17T11:52:03.663Z,62655.47
2023-03-17T11:54:36.303Z,62663.50
2023-03-17T11:57:15.467Z,62645.13
2023-03-17T11:59:47.049Z,62662.97
2023-03-17T12:02:38.389Z,62690.16
2023-03-17T12:05:16.977Z,62673.84
2023-03-17T12:07:48.183Z,62653.41
2023-03-17T12:10:25.807Z,62666.88
2023-03-17T12:13:01.334Z,62670.56
2023-03-17T12:15:36.394Z,62658.03
2023-03-17T12:18:10.987Z,62678.31
2023-03-17T12:20:37.574Z,62695.03
2023-03-17T12:23:17.773Z,62685.25
2023-03-17T12:26:08.157Z,62646.91
2023-03-17T12:28:42.511Z,62646.78
2023-03-17T12:31:29.023Z,62641.31
2023-03-17T12:34:18.894Z,62653.28
2023-03-17T12:36:45.542Z,62669.47
2023-03-17T12:39:21.275Z,62681.44
2023-03-17T12:42:05.815Z,62679.78
2023-03-17T12:44:42.015Z,62668.94
2023-03-17T12:47:46.184Z,62663.63
2023-03-17T12:50:20.044Z,62654.91
2023-03-17T12:53:26.691Z,62667.44
2023-03-17T12:55:57.214Z,62636.72
2023-03-17T12:58:38.402Z,62664.44
2023-03-17T13:01:24.191Z,62659.13
2023-03-17T13:04:22.110Z,62642.84
2023-03-17T13:07:12.980Z,62625.19
2023-03-17T13:09:54.924Z,62636.31
2023-03-17T13:12:56.578Z,62642.84
2023-03-17T13:15:23.518Z,62641.22
2023-03-17T13:17:50.922Z,62611.31
2023-03-17T13:20:21.343Z,62627.75
2023-03-17T13:23:13.938Z,62610.22
2023-03-17T13:25:41.855Z,62615.09
2023-03-17T13:28:12.020Z,62615.66
2023-03-17T13:30:38.834Z,62600.97
2023-03-17T13:33:09.696Z,62611.72
2023-03-17T13:35:46.858Z,62603.56
2023-03-17T13:38:16.517Z,62601.09
2023-03-17T13:41:14.165Z,62604.78
2023-03-17T13:44:02.471Z,62597.84
2023-03-17T13:46:41.790Z,62583.06
2023-03-17T13:49:26.648Z,62582.78
2023-03-17T13:52:01.705Z,62567.16
2023-03-17T13:54:28.415Z,62596.63
2023-03-17T13:57:16.177Z,62585.78
2023-03-17T14:00:16.514Z,62569.59
2023-03-17T14:02:44.881Z,62567.31
2023-03-17T14:05:23.841Z,62555.47
2023-03-17T14:08:00.732Z,62578.16
2023-03-17T14:10:31.488Z,62536.88
2023-03-17T14:13:07.071Z,62556.56
2023-03-17T14:15:56.403Z,62547.88
2023-03-17T14:18:31.161Z,62556.56
2023-03-17T14:20:59.962Z,62559.72
2023-03-17T14:23:27.317Z,62554.81
2023-03-17T14:25:59.615Z,62534.84
2023-03-17T14:28:28.870Z,62553.31
2023-03-17T14:31:01.198Z,62550.47
2023-03-17T14:33:30.677Z,62534.72
2023-03-17T14:36:00.598Z,62538.66
2023-03-17T14:38:31.523Z,62551.81
2023-03-17T14:41:18.087Z,62556.97
2023-03-17T14:43:45.009Z,62547.19
2023-03-17T14:46:21.485Z,62543.41
2023-03-17T14:48:51.438Z,62553.72
2023-03-17T14:51:37.835Z,62553.31
2023-03-17T14:54:13.189Z,62552.38
2023-03-17T14:56:51.347Z,62521.81
2023-03-17T14:59:33.658Z,62525.47
2023-03-17T15:02:03.778Z,62539.19
2023-03-17T15:04:34.395Z,62538.00
2023-03-17T15:07:04.585Z,62535.81
2023-03-17T15:09:34.174Z,62541.38
2023-03-17T15:12:24.107Z,62547.75
2023-03-17T15:14:53.637Z,62504.31
2023-03-17T15:17:26.002Z,62541.66
2023-03-17T15:19:57.324Z,62521.28
2023-03-17T15:22:33.197Z,62541.22
2023-03-17T15:25:28.814Z,62537.44
2023-03-17T15:27:56.068Z,62499.44
2023-03-17T15:30:23.650Z,62527.25
2023-03-17T15:32:53.223Z,62543.41
2023-03-17T15:35:19.928Z,62549.91
2023-03-17T15:37:47.084Z,62546.13
2023-03-17T15:40:13.965Z,62520.06
2023-03-17T15:42:40.633Z,62533.09
2023-03-17T15:45:07.989Z,62516.94
2023-03-17T15:47:37.764Z,62504.31
2023-03-17T15:50:16.693Z,62546.66
2023-03-17T15:52:44.406Z,62539.06
2023-03-17T15:55:23.322Z,62529.28
2023-03-17T15:57:55.056Z,62528.75
2023-03-17T16:00:25.463Z,62533.63
2023-03-17T16:02:58.639Z,62527.78
2023-03-17T16:05:27.494Z,62512.03
2023-03-17T16:07:54.896Z,62543.41
2023-03-17T16:10:27.495Z,62520.06
2023-03-17T16:12:54.735Z,62519.53
2023-03-17T16:15:27.936Z,62526.16
2023-03-17T16:17:58.413Z,62535.41
2023-03-17T16:20:31.513Z,62535.25
2023-03-17T16:23:06.450Z,62503.38
2023-03-17T16:25:33.158Z,62501.59
2023-03-17T16:28:01.865Z,62541.78
2023-03-17T16:30:31.565Z,62515.72
2023-03-17T16:33:03.009Z,62541.25
2023-03-17T16:35:30.186Z,62538.53
2023-03-17T16:37:56.942Z,62501.19
2023-03-17T16:40:25.538Z,62496.19
2023-03-17T16:42:52.799Z,62536.34
2023-03-17T16:45:29.986Z,62525.63
2023-03-17T16:47:57.424Z,62518.56
2023-03-17T16:50:26.670Z,62532.00
2023-03-17T16:52:53.310Z,62528.88
2023-03-17T16:55:21.526Z,62528.19
2023-03-17T16:57:50.790Z,62497.81
2023-03-17T17:00:21.855Z,62521.81
2023-03-17T17:02:49.813Z,62490.19
2023-03-17T17:05:31.225Z,62527.25
2023-03-17T17:07:58.667Z,62527.66
2023-03-17T17:10:28.455Z,62514.38
2023-03-17T17:12:55.337Z,62547.31
2023-03-17T17:15:22.774Z,62549.38
2023-03-17T17:17:54.368Z,62544.91
2023-03-17T17:20:22.471Z,62533.22
2023-03-17T17:22:49.888Z,62553.31
2023-03-17T17:25:17.830Z,62565.66
2023-03-17T17:27:45.387Z,62563.34
2023-03-17T17:30:15.567Z,62536.34
2023-03-17T17:32:42.312Z,62537.31
2023-03-17T17:35:09.843Z,62551.56
2023-03-17T17:37:36.733Z,62528.34
2023-03-17T17:40:04.435Z,62560.78
2023-03-17T17:42:31.041Z,62540.13
2023-03-17T17:44:57.693Z,62553.44
2023-03-17T17:47:24.293Z,62554.69
2023-03-17T17:49:51.389Z,62544.06
2023-03-17T17:52:18.533Z,62527.13
2023-03-17T17:54:45.408Z,62553.72
2023-03-17T17:57:13.045Z,62533.63
2023-03-17T17:59:39.714Z,62553.31
2023-03-17T18:02:06.938Z,62547.31
2023-03-17T18:04:34.003Z,62553.72
2023-03-17T18:07:03.248Z,62569.47
2023-03-17T18:09:31.927Z,62554.25
2023-03-17T18:11:58.723Z,62562.97
2023-03-17T18:14:25.825Z,62551.00
2023-03-17T18:16:52.408Z,62558.06
2023-03-17T18:19:19.655Z,62567.56
2023-03-17T18:21:47.120Z,62587.97
2023-03-17T18:24:14.652Z,62577.63
2023-03-17T18:26:41.705Z,62570.16
2023-03-17T18:29:09.499Z,62585.91
2023-03-17T18:31:44.299Z,62546.38
2023-03-17T18:34:16.400Z,62583.19
2023-03-17T18:36:44.957Z,62559.84
2023-03-17T18:39:11.560Z,62556.56
2023-03-17T18:41:38.618Z,62571.13
2023-03-17T18:44:07.404Z,62578.31
2023-03-17T18:46:34.201Z,62584.28
2023-03-17T18:49:01.071Z,62561.31
2023-03-17T18:51:27.765Z,62585.22
2023-03-17T18:53:54.711Z,62591.22
2023-03-17T18:56:23.416Z,62577.09
2023-03-17T18:58:50.214Z,62562.66
2023-03-17T19:01:17.393Z,62585.75
2023-03-17T19:03:44.029Z,62566.22
2023-03-17T19:06:13.612Z,62578.69
2023-03-17T19:08:40.730Z,62556.97
2023-03-17T19:11:08.988Z,62569.06
2023-03-17T19:13:36.731Z,62583.47
2023-03-17T19:16:05.401Z,62569.22
2023-03-17T19:18:32.044Z,62548.84
2023-03-17T19:20:59.025Z,62571.25
2023-03-17T19:23:26.490Z,62553.31
2023-03-17T19:25:53.329Z,62553.72
2023-03-17T19:28:20.481Z,62549.66
2023-03-17T19:30:48.203Z,62546.25
2023-03-17T19:33:16.346Z,62543.53
2023-03-17T19:35:44.450Z,62561.19
2023-03-17T19:38:12.116Z,62540.69
2023-03-17T19:40:39.335Z,62564.03
2023-03-17T19:43:06.855Z,62547.19
2023-03-17T19:46:01.219Z,60821.84
2023-03-17T19:48:40.950Z,60821.84
2023-03-17T19:51:08.245Z,60821.84
2023-03-17T19:53:35.257Z,62547.19
2023-03-17T19:56:01.862Z,62510.28
2023-03-17T19:58:28.501Z,62519.78
2023-03-17T20:00:55.427Z,62497.25
2023-03-17T20:03:23.736Z,62519.53
2023-03-17T20:05:52.842Z,62507.56
2023-03-17T20:08:19.758Z,62539.06
2023-03-17T20:10:49.974Z,62529.97
2023-03-17T20:13:16.572Z,62521.16
2023-03-17T20:15:44.020Z,62522.91
2023-03-17T20:18:11.128Z,62535.81
2023-03-17T20:20:37.774Z,62522.91
2023-03-17T20:23:04.537Z,62521.28
2023-03-17T20:25:31.113Z,62499.84
2023-03-17T20:27:57.800Z,62536.91
2023-03-17T20:30:24.452Z,62531.47
2023-03-17T20:32:51.215Z,62481.53
2023-03-17T20:35:18.849Z,62508.09
2023-03-17T20:37:45.602Z,62497.38
2023-03-17T20:40:12.993Z,62526.56
2023-03-17T20:42:39.685Z,62504.31
2023-03-17T20:45:07.549Z,62537.97
2023-03-17T20:47:34.865Z,62543.94
2023-03-17T20:50:01.757Z,62468.50
2023-03-17T20:52:30.203Z,62521.69
2023-03-17T20:54:59.537Z,62522.91
2023-03-17T20:57:26.399Z,62526.16
2023-03-17T20:59:53.064Z,62507.03
2023-03-17T21:02:19.716Z,62530.38
2023-03-17T21:04:48.850Z,62537.97
2023-03-17T21:07:17.467Z,62543.69
2023-03-17T21:09:45.045Z,62525.75
2023-03-17T21:12:17.166Z,62519.66
2023-03-17T21:14:44.203Z,62501.06
2023-03-17T21:17:11.470Z,62519.66
2023-03-17T21:19:38.435Z,62534.84
2023-03-17T21:22:06.236Z,62528.72
2023-03-17T21:24:35.367Z,62547.75
2023-03-17T21:27:08.280Z,62534.19
2023-03-17T21:29:34.969Z,62522.78
2023-03-17T21:32:02.303Z,62530.50
2023-03-17T21:34:31.865Z,62512.47
2023-03-17T21:36:59.591Z,62525.50
2023-03-17T21:39:29.527Z,62524.53
2023-03-17T21:41:57.631Z,62494.56
2023-03-17T21:44:24.556Z,62515.19
2023-03-17T21:46:51.256Z,62515.03
2023-03-17T21:49:18.909Z,62530.91
2023-03-17T21:51:46.912Z,62498.34
2023-03-17T21:54:14.370Z,62514.22
2023-03-17T21:56:41.663Z,62501.72
2023-03-17T21:59:11.125Z,62532.53
2023-03-17T22:01:41.918Z,62535.28
2023-03-17T22:04:09.240Z,62496.16
2023-03-17T22:06:36.102Z,62490.88
2023-03-17T22:09:04.615Z,62515.72
2023-03-17T22:11:31.429Z,62495.75
2023-03-17T22:13:58.965Z,62496.72
2023-03-17T22:16:25.712Z,62532.41
2023-03-17T22:18:52.814Z,62534.19
2023-03-17T22:21:21.450Z,62493.44
2023-03-17T22:23:48.395Z,62509.47
2023-03-17T22:26:21.004Z,62528.06
2023-03-17T22:28:49.963Z,62544.06
2023-03-17T22:31:22.387Z,62537.97
2023-03-17T22:33:55.413Z,62530.38
2023-03-17T22:36:24.064Z,62533.22
2023-03-17T22:38:51.250Z,62511.38
2023-03-17T22:41:21.614Z,62514.22
2023-03-17T22:43:48.540Z,62541.25
2023-03-17T22:46:16.390Z,62538.09
2023-03-17T22:48:44.043Z,62549.41
2023-03-17T22:51:13.809Z,62492.38
2023-03-17T22:53:41.014Z,62539.59
2023-03-17T22:56:08.540Z,62551.00
2023-03-17T22:58:35.484Z,62524.41
2023-03-17T23:01:02.741Z,62528.06
2023-03-17T23:03:30.758Z,62551.00
2023-03-17T23:05:59.858Z,62532.00
2023-03-17T23:08:29.352Z,62521.69
2023-03-17T23:10:57.342Z,62532.00
2023-03-17T23:13:24.289Z,62507.56
2023-03-17T23:15:51.318Z,62541.50
2023-03-17T23:18:17.965Z,62477.44
2023-03-17T23:20:45.871Z,62531.47
2023-03-17T23:23:13.240Z,62507.16
2023-03-17T23:25:40.388Z,62522.22
2023-03-17T23:28:07.839Z,62524.53
2023-03-17T23:30:35.870Z,62514.22
2023-03-17T23:33:04.910Z,62511.66
2023-03-17T23:35:32.230Z,62506.50
2023-03-17T23:37:59.503Z,62509.19
2023-03-17T23:40:26.461Z,62509.75
2023-03-17T23:42:55.522Z,62516.25
2023-03-17T23:45:23.996Z,62483.81
2023-03-17T23:47:52.882Z,62507.44
2023-03-17T23:50:21.155Z,62509.47
2023-03-17T23:52:48.194Z,62514.78
2023-03-17T23:55:16.830Z,62502.81
2023-03-17T23:57:45.101Z,62504.44
